Terminal Aerodrome Forecast
Issued by NWS Billings, MT

Home | Current Version | Previous Version | Text Only | Print | Product List | Glossary On
Versions: 1 2 3 4 5 6 7 8 9 10 11 12 13 14 15 16 17 18 19 20 21 22 23 24 25 26 27
000
FTUS45 KBYZ 062329
TAFSHR
TAF
KSHR 062329Z 0700/0724 32025KT P6SM BKN120 BKN200
     FM070400 32015G25KT P6SM VCSH BKN060 OVC120 WS020/32050KT
     FM071400 32018G28KT P6SM SCT100 BKN200 WS020/32050KT
     FM072000 30018KT P6SM SCT120 BKN200=

USA.gov is the U.S. government's official web portal to all federal, state and local government web resources and services.